sensor_id;sensor_type;location;lat;lon;timestamp;temperature;humidity
64888;DHT22;51386;53.082;8.816;2022-12-08T00:01:19;5.80;82.10
64888;DHT22;51386;53.082;8.816;2022-12-08T00:03:49;5.80;82.10
64888;DHT22;51386;53.082;8.816;2022-12-08T00:06:24;5.80;82.20
64888;DHT22;51386;53.082;8.816;2022-12-08T00:09:13;5.80;82.20
64888;DHT22;51386;53.082;8.816;2022-12-08T00:11:55;5.80;82.10
64888;DHT22;51386;53.082;8.816;2022-12-08T00:14:27;5.80;82.10
64888;DHT22;51386;53.082;8.816;2022-12-08T00:16:56;5.80;82.10
64888;DHT22;51386;53.082;8.816;2022-12-08T00:19:25;5.70;82.00
64888;DHT22;51386;53.082;8.816;2022-12-08T00:21:55;5.70;81.90
64888;DHT22;51386;53.082;8.816;2022-12-08T00:24:25;5.70;82.20
64888;DHT22;51386;53.082;8.816;2022-12-08T00:26:56;5.70;83.20
64888;DHT22;51386;53.082;8.816;2022-12-08T00:29:23;5.70;82.50
64888;DHT22;51386;53.082;8.816;2022-12-08T00:31:50;5.60;82.50
64888;DHT22;51386;53.082;8.816;2022-12-08T00:34:17;5.60;82.40
64888;DHT22;51386;53.082;8.816;2022-12-08T00:36:45;5.60;82.50
64888;DHT22;51386;53.082;8.816;2022-12-08T00:39:15;5.60;82.50
64888;DHT22;51386;53.082;8.816;2022-12-08T00:41:44;5.60;82.50
64888;DHT22;51386;53.082;8.816;2022-12-08T00:44:30;5.60;82.40
64888;DHT22;51386;53.082;8.816;2022-12-08T00:46:57;5.60;82.40
64888;DHT22;51386;53.082;8.816;2022-12-08T00:49:24;5.60;82.50
64888;DHT22;51386;53.082;8.816;2022-12-08T00:51:51;5.60;82.70
64888;DHT22;51386;53.082;8.816;2022-12-08T00:54:20;5.60;82.60
64888;DHT22;51386;53.082;8.816;2022-12-08T00:56:48;5.50;82.80
64888;DHT22;51386;53.082;8.816;2022-12-08T00:59:17;5.50;82.80
64888;DHT22;51386;53.082;8.816;2022-12-08T01:01:45;5.50;82.90
64888;DHT22;51386;53.082;8.816;2022-12-08T01:04:15;5.50;82.90
64888;DHT22;51386;53.082;8.816;2022-12-08T01:06:44;5.50;83.70
64888;DHT22;51386;53.082;8.816;2022-12-08T01:09:13;5.50;82.90
64888;DHT22;51386;53.082;8.816;2022-12-08T01:11:43;5.50;83.80
64888;DHT22;51386;53.082;8.816;2022-12-08T01:14:11;5.50;83.10
64888;DHT22;51386;53.082;8.816;2022-12-08T01:16:38;5.50;83.10
64888;DHT22;51386;53.082;8.816;2022-12-08T01:19:08;5.50;83.10
64888;DHT22;51386;53.082;8.816;2022-12-08T01:21:37;5.60;83.10
64888;DHT22;51386;53.082;8.816;2022-12-08T01:24:05;5.50;83.00
64888;DHT22;51386;53.082;8.816;2022-12-08T01:26:33;5.60;83.10
64888;DHT22;51386;53.082;8.816;2022-12-08T01:29:02;5.60;83.00
64888;DHT22;51386;53.082;8.816;2022-12-08T01:31:29;5.70;83.00
64888;DHT22;51386;53.082;8.816;2022-12-08T01:33:55;5.70;82.90
64888;DHT22;51386;53.082;8.816;2022-12-08T01:36:25;5.70;82.80
64888;DHT22;51386;53.082;8.816;2022-12-08T01:38:56;5.70;82.70
64888;DHT22;51386;53.082;8.816;2022-12-08T01:41:26;5.80;82.70
64888;DHT22;51386;53.082;8.816;2022-12-08T01:43:59;5.70;82.50
64888;DHT22;51386;53.082;8.816;2022-12-08T01:46:31;5.80;82.60
64888;DHT22;51386;53.082;8.816;2022-12-08T01:49:02;5.80;82.60
64888;DHT22;51386;53.082;8.816;2022-12-08T01:51:35;5.80;82.60
64888;DHT22;51386;53.082;8.816;2022-12-08T01:54:08;5.80;82.60
64888;DHT22;51386;53.082;8.816;2022-12-08T01:56:41;5.80;82.50
64888;DHT22;51386;53.082;8.816;2022-12-08T01:59:14;5.80;82.40
64888;DHT22;51386;53.082;8.816;2022-12-08T02:01:44;5.90;82.50
64888;DHT22;51386;53.082;8.816;2022-12-08T02:04:11;5.90;82.50
64888;DHT22;51386;53.082;8.816;2022-12-08T02:06:42;5.90;82.40
64888;DHT22;51386;53.082;8.816;2022-12-08T02:09:11;5.90;82.40
64888;DHT22;51386;53.082;8.816;2022-12-08T02:11:38;5.90;82.30
64888;DHT22;51386;53.082;8.816;2022-12-08T02:14:06;6.00;82.30
64888;DHT22;51386;53.082;8.816;2022-12-08T02:16:40;6.00;82.30
64888;DHT22;51386;53.082;8.816;2022-12-08T02:19:34;6.00;82.50
64888;DHT22;51386;53.082;8.816;2022-12-08T02:22:20;6.00;82.50
64888;DHT22;51386;53.082;8.816;2022-12-08T02:24:59;6.00;82.50
64888;DHT22;51386;53.082;8.816;2022-12-08T02:27:41;6.00;82.40
64888;DHT22;51386;53.082;8.816;2022-12-08T02:30:23;6.00;82.30
64888;DHT22;51386;53.082;8.816;2022-12-08T02:33:20;6.00;82.30
64888;DHT22;51386;53.082;8.816;2022-12-08T02:36:04;6.00;82.40
64888;DHT22;51386;53.082;8.816;2022-12-08T02:38:46;6.00;82.50
64888;DHT22;51386;53.082;8.816;2022-12-08T02:41:24;6.00;82.60
64888;DHT22;51386;53.082;8.816;2022-12-08T02:44:07;6.10;82.70
64888;DHT22;51386;53.082;8.816;2022-12-08T02:46:44;6.10;82.60
64888;DHT22;51386;53.082;8.816;2022-12-08T02:49:17;6.10;82.60
64888;DHT22;51386;53.082;8.816;2022-12-08T02:51:45;6.10;82.60
64888;DHT22;51386;53.082;8.816;2022-12-08T02:54:13;6.10;82.60
64888;DHT22;51386;53.082;8.816;2022-12-08T02:56:56;6.20;82.60
64888;DHT22;51386;53.082;8.816;2022-12-08T02:59:49;6.20;82.60
64888;DHT22;51386;53.082;8.816;2022-12-08T03:02:39;6.20;82.50
64888;DHT22;51386;53.082;8.816;2022-12-08T03:05:21;6.20;82.50
64888;DHT22;51386;53.082;8.816;2022-12-08T03:08:10;6.20;82.30
64888;DHT22;51386;53.082;8.816;2022-12-08T03:10:43;6.20;82.10
64888;DHT22;51386;53.082;8.816;2022-12-08T03:13:20;6.20;82.30
64888;DHT22;51386;53.082;8.816;2022-12-08T03:15:51;6.20;82.20
64888;DHT22;51386;53.082;8.816;2022-12-08T03:18:23;6.20;82.10
64888;DHT22;51386;53.082;8.816;2022-12-08T03:20:54;6.20;82.10
64888;DHT22;51386;53.082;8.816;2022-12-08T03:23:23;6.20;82.20
64888;DHT22;51386;53.082;8.816;2022-12-08T03:25:57;6.20;82.30
64888;DHT22;51386;53.082;8.816;2022-12-08T03:28:30;6.20;82.20
64888;DHT22;51386;53.082;8.816;2022-12-08T03:30:59;6.20;82.10
64888;DHT22;51386;53.082;8.816;2022-12-08T03:33:32;6.20;82.10
64888;DHT22;51386;53.082;8.816;2022-12-08T03:36:04;6.30;82.20
64888;DHT22;51386;53.082;8.816;2022-12-08T03:38:40;6.30;82.20
64888;DHT22;51386;53.082;8.816;2022-12-08T03:41:08;6.30;82.10
64888;DHT22;51386;53.082;8.816;2022-12-08T03:43:46;6.30;82.20
64888;DHT22;51386;53.082;8.816;2022-12-08T03:46:14;6.30;82.20
64888;DHT22;51386;53.082;8.816;2022-12-08T03:48:42;6.30;81.70
64888;DHT22;51386;53.082;8.816;2022-12-08T03:51:09;6.30;81.70
64888;DHT22;51386;53.082;8.816;2022-12-08T03:53:37;6.20;81.70
64888;DHT22;51386;53.082;8.816;2022-12-08T03:56:13;6.30;81.70
64888;DHT22;51386;53.082;8.816;2022-12-08T03:58:42;6.20;81.90
64888;DHT22;51386;53.082;8.816;2022-12-08T04:01:10;6.20;81.80
64888;DHT22;51386;53.082;8.816;2022-12-08T04:03:37;6.20;81.70
64888;DHT22;51386;53.082;8.816;2022-12-08T04:06:04;6.20;81.60
64888;DHT22;51386;53.082;8.816;2022-12-08T04:08:32;6.20;81.70
64888;DHT22;51386;53.082;8.816;2022-12-08T04:11:01;6.20;81.60
64888;DHT22;51386;53.082;8.816;2022-12-08T04:13:28;6.20;81.60
64888;DHT22;51386;53.082;8.816;2022-12-08T04:15:55;6.20;81.70
64888;DHT22;51386;53.082;8.816;2022-12-08T04:18:22;6.20;81.60
64888;DHT22;51386;53.082;8.816;2022-12-08T04:20:49;6.20;81.40
64888;DHT22;51386;53.082;8.816;2022-12-08T04:23:16;6.20;81.60
64888;DHT22;51386;53.082;8.816;2022-12-08T04:25:43;6.20;81.60
64888;DHT22;51386;53.082;8.816;2022-12-08T04:28:11;6.20;81.70
64888;DHT22;51386;53.082;8.816;2022-12-08T04:30:39;6.20;81.80
64888;DHT22;51386;53.082;8.816;2022-12-08T04:33:05;6.10;81.60
64888;DHT22;51386;53.082;8.816;2022-12-08T04:35:32;6.10;81.60
64888;DHT22;51386;53.082;8.816;2022-12-08T04:38:00;6.10;81.70
64888;DHT22;51386;53.082;8.816;2022-12-08T04:40:27;6.10;81.90
64888;DHT22;51386;53.082;8.816;2022-12-08T04:42:54;6.10;81.90
64888;DHT22;51386;53.082;8.816;2022-12-08T04:45:22;6.10;81.80
64888;DHT22;51386;53.082;8.816;2022-12-08T04:47:49;6.10;82.00
64888;DHT22;51386;53.082;8.816;2022-12-08T04:50:16;6.10;81.70
64888;DHT22;51386;53.082;8.816;2022-12-08T04:52:43;6.10;81.70
64888;DHT22;51386;53.082;8.816;2022-12-08T04:55:11;6.20;81.80
64888;DHT22;51386;53.082;8.816;2022-12-08T04:57:38;6.10;81.70
64888;DHT22;51386;53.082;8.816;2022-12-08T05:00:06;6.10;81.70
64888;DHT22;51386;53.082;8.816;2022-12-08T05:02:35;6.10;81.90
64888;DHT22;51386;53.082;8.816;2022-12-08T05:05:03;6.10;82.00
64888;DHT22;51386;53.082;8.816;2022-12-08T05:07:31;6.10;82.00
64888;DHT22;51386;53.082;8.816;2022-12-08T05:09:58;6.10;82.00
64888;DHT22;51386;53.082;8.816;2022-12-08T05:12:25;6.10;82.00
64888;DHT22;51386;53.082;8.816;2022-12-08T05:14:52;6.10;82.00
64888;DHT22;51386;53.082;8.816;2022-12-08T05:17:20;6.10;82.00
64888;DHT22;51386;53.082;8.816;2022-12-08T05:19:48;6.20;82.10
64888;DHT22;51386;53.082;8.816;2022-12-08T05:22:15;6.10;82.00
64888;DHT22;51386;53.082;8.816;2022-12-08T05:24:42;6.20;82.10
64888;DHT22;51386;53.082;8.816;2022-12-08T05:27:13;6.20;82.00
64888;DHT22;51386;53.082;8.816;2022-12-08T05:29:40;6.10;81.80
64888;DHT22;51386;53.082;8.816;2022-12-08T05:32:07;6.20;82.00
64888;DHT22;51386;53.082;8.816;2022-12-08T05:34:34;6.20;82.10
64888;DHT22;51386;53.082;8.816;2022-12-08T05:37:03;6.20;82.10
64888;DHT22;51386;53.082;8.816;2022-12-08T05:39:30;6.20;82.10
64888;DHT22;51386;53.082;8.816;2022-12-08T05:41:57;6.10;81.90
64888;DHT22;51386;53.082;8.816;2022-12-08T05:44:25;6.20;82.60
64888;DHT22;51386;53.082;8.816;2022-12-08T05:46:52;6.10;81.80
64888;DHT22;51386;53.082;8.816;2022-12-08T05:49:19;6.20;82.00
64888;DHT22;51386;53.082;8.816;2022-12-08T05:51:46;6.20;82.10
64888;DHT22;51386;53.082;8.816;2022-12-08T05:54:14;6.20;82.10
64888;DHT22;51386;53.082;8.816;2022-12-08T05:56:41;6.20;82.10
64888;DHT22;51386;53.082;8.816;2022-12-08T05:59:09;6.20;82.10
64888;DHT22;51386;53.082;8.816;2022-12-08T06:01:36;6.20;82.10
64888;DHT22;51386;53.082;8.816;2022-12-08T06:04:04;6.20;82.80
64888;DHT22;51386;53.082;8.816;2022-12-08T06:06:34;6.20;82.20
64888;DHT22;51386;53.082;8.816;2022-12-08T06:09:02;6.20;82.10
64888;DHT22;51386;53.082;8.816;2022-12-08T06:11:31;6.20;82.10
64888;DHT22;51386;53.082;8.816;2022-12-08T06:13:59;6.20;82.10
64888;DHT22;51386;53.082;8.816;2022-12-08T06:16:28;6.20;82.10
64888;DHT22;51386;53.082;8.816;2022-12-08T06:18:56;6.20;82.00
64888;DHT22;51386;53.082;8.816;2022-12-08T06:21:23;6.30;81.90
64888;DHT22;51386;53.082;8.816;2022-12-08T06:23:52;6.30;82.00
64888;DHT22;51386;53.082;8.816;2022-12-08T06:26:20;6.30;82.00
64888;DHT22;51386;53.082;8.816;2022-12-08T06:28:49;6.30;81.80
64888;DHT22;51386;53.082;8.816;2022-12-08T06:31:19;6.30;81.70
64888;DHT22;51386;53.082;8.816;2022-12-08T06:33:48;6.30;81.70
64888;DHT22;51386;53.082;8.816;2022-12-08T06:36:18;6.30;81.50
64888;DHT22;51386;53.082;8.816;2022-12-08T06:38:47;6.40;81.70
64888;DHT22;51386;53.082;8.816;2022-12-08T06:41:15;6.40;81.30
64888;DHT22;51386;53.082;8.816;2022-12-08T06:43:43;6.40;80.90
64888;DHT22;51386;53.082;8.816;2022-12-08T06:46:13;6.40;80.80
64888;DHT22;51386;53.082;8.816;2022-12-08T06:48:42;6.40;80.70
64888;DHT22;51386;53.082;8.816;2022-12-08T06:51:11;6.40;80.60
64888;DHT22;51386;53.082;8.816;2022-12-08T06:53:41;6.40;80.70
64888;DHT22;51386;53.082;8.816;2022-12-08T06:56:10;6.40;80.50
64888;DHT22;51386;53.082;8.816;2022-12-08T06:58:38;6.40;80.40
64888;DHT22;51386;53.082;8.816;2022-12-08T07:01:06;6.30;80.20
64888;DHT22;51386;53.082;8.816;2022-12-08T07:03:36;6.30;79.90
64888;DHT22;51386;53.082;8.816;2022-12-08T07:06:04;6.30;80.00
64888;DHT22;51386;53.082;8.816;2022-12-08T07:08:33;6.20;80.10
64888;DHT22;51386;53.082;8.816;2022-12-08T07:11:05;6.20;80.20
64888;DHT22;51386;53.082;8.816;2022-12-08T07:13:33;6.20;80.40
64888;DHT22;51386;53.082;8.816;2022-12-08T07:16:04;6.20;80.50
64888;DHT22;51386;53.082;8.816;2022-12-08T07:18:32;6.20;80.80
64888;DHT22;51386;53.082;8.816;2022-12-08T07:21:03;6.10;81.00
64888;DHT22;51386;53.082;8.816;2022-12-08T07:23:31;6.10;81.30
64888;DHT22;51386;53.082;8.816;2022-12-08T07:26:00;6.10;81.30
64888;DHT22;51386;53.082;8.816;2022-12-08T07:28:29;6.10;81.30
64888;DHT22;51386;53.082;8.816;2022-12-08T07:30:57;6.20;81.40
64888;DHT22;51386;53.082;8.816;2022-12-08T07:33:25;6.20;81.20
64888;DHT22;51386;53.082;8.816;2022-12-08T07:35:53;6.20;81.00
64888;DHT22;51386;53.082;8.816;2022-12-08T07:38:22;6.20;80.90
64888;DHT22;51386;53.082;8.816;2022-12-08T07:40:51;6.20;80.90
64888;DHT22;51386;53.082;8.816;2022-12-08T07:43:19;6.20;80.70
64888;DHT22;51386;53.082;8.816;2022-12-08T07:45:47;6.20;80.60
64888;DHT22;51386;53.082;8.816;2022-12-08T07:48:15;6.20;80.40
64888;DHT22;51386;53.082;8.816;2022-12-08T07:50:43;6.20;80.20
64888;DHT22;51386;53.082;8.816;2022-12-08T07:53:10;6.20;80.20
64888;DHT22;51386;53.082;8.816;2022-12-08T07:55:40;6.20;80.20
64888;DHT22;51386;53.082;8.816;2022-12-08T07:58:09;6.20;80.60
64888;DHT22;51386;53.082;8.816;2022-12-08T08:00:36;6.20;80.80
64888;DHT22;51386;53.082;8.816;2022-12-08T08:03:03;6.20;80.60
64888;DHT22;51386;53.082;8.816;2022-12-08T08:05:31;6.20;80.20
64888;DHT22;51386;53.082;8.816;2022-12-08T08:07:58;6.20;80.00
64888;DHT22;51386;53.082;8.816;2022-12-08T08:10:25;6.10;79.80
64888;DHT22;51386;53.082;8.816;2022-12-08T08:12:53;6.10;80.00
64888;DHT22;51386;53.082;8.816;2022-12-08T08:15:23;6.10;80.40
64888;DHT22;51386;53.082;8.816;2022-12-08T08:17:51;6.10;80.40
64888;DHT22;51386;53.082;8.816;2022-12-08T08:20:19;6.10;80.20
64888;DHT22;51386;53.082;8.816;2022-12-08T08:22:48;6.10;80.40
64888;DHT22;51386;53.082;8.816;2022-12-08T08:25:17;6.10;80.50
64888;DHT22;51386;53.082;8.816;2022-12-08T08:27:48;6.10;80.40
64888;DHT22;51386;53.082;8.816;2022-12-08T08:30:17;6.10;80.40
64888;DHT22;51386;53.082;8.816;2022-12-08T08:32:47;6.10;80.00
64888;DHT22;51386;53.082;8.816;2022-12-08T08:35:16;6.10;80.00
64888;DHT22;51386;53.082;8.816;2022-12-08T08:37:44;6.00;79.90
64888;DHT22;51386;53.082;8.816;2022-12-08T08:40:15;6.00;80.20
64888;DHT22;51386;53.082;8.816;2022-12-08T08:42:42;6.00;80.20
64888;DHT22;51386;53.082;8.816;2022-12-08T08:45:10;6.00;80.40
64888;DHT22;51386;53.082;8.816;2022-12-08T08:47:38;6.00;80.30
64888;DHT22;51386;53.082;8.816;2022-12-08T08:50:06;6.10;80.50
64888;DHT22;51386;53.082;8.816;2022-12-08T08:52:34;6.10;80.40
64888;DHT22;51386;53.082;8.816;2022-12-08T08:55:01;6.10;80.20
64888;DHT22;51386;53.082;8.816;2022-12-08T08:57:28;6.10;79.90
64888;DHT22;51386;53.082;8.816;2022-12-08T08:59:55;6.20;79.40
64888;DHT22;51386;53.082;8.816;2022-12-08T09:02:22;6.20;79.30
64888;DHT22;51386;53.082;8.816;2022-12-08T09:04:51;6.20;79.10
64888;DHT22;51386;53.082;8.816;2022-12-08T09:07:19;6.20;79.60
64888;DHT22;51386;53.082;8.816;2022-12-08T09:09:46;6.20;78.90
64888;DHT22;51386;53.082;8.816;2022-12-08T09:12:13;6.30;80.00
64888;DHT22;51386;53.082;8.816;2022-12-08T09:14:41;6.30;80.10
64888;DHT22;51386;53.082;8.816;2022-12-08T09:17:08;6.40;79.40
64888;DHT22;51386;53.082;8.816;2022-12-08T09:19:35;6.50;78.60
64888;DHT22;51386;53.082;8.816;2022-12-08T09:22:04;6.50;78.20
64888;DHT22;51386;53.082;8.816;2022-12-08T09:24:31;6.50;78.10
64888;DHT22;51386;53.082;8.816;2022-12-08T09:26:58;6.50;77.80
64888;DHT22;51386;53.082;8.816;2022-12-08T09:29:25;6.50;77.60
64888;DHT22;51386;53.082;8.816;2022-12-08T09:32:01;6.50;77.60
64888;DHT22;51386;53.082;8.816;2022-12-08T09:34:28;6.50;78.30
64888;DHT22;51386;53.082;8.816;2022-12-08T09:36:56;6.50;77.80
64888;DHT22;51386;53.082;8.816;2022-12-08T09:39:25;6.60;78.30
64888;DHT22;51386;53.082;8.816;2022-12-08T09:41:57;6.60;77.80
64888;DHT22;51386;53.082;8.816;2022-12-08T09:44:44;6.60;77.30
64888;DHT22;51386;53.082;8.816;2022-12-08T09:47:20;6.60;77.30
64888;DHT22;51386;53.082;8.816;2022-12-08T09:49:57;6.60;77.20
64888;DHT22;51386;53.082;8.816;2022-12-08T09:52:33;6.50;77.00
64888;DHT22;51386;53.082;8.816;2022-12-08T09:55:16;6.50;77.00
64888;DHT22;51386;53.082;8.816;2022-12-08T09:57:56;6.50;77.20
64888;DHT22;51386;53.082;8.816;2022-12-08T10:00:28;6.40;77.80
64888;DHT22;51386;53.082;8.816;2022-12-08T10:02:55;6.50;78.00
64888;DHT22;51386;53.082;8.816;2022-12-08T10:05:25;6.50;77.60
64888;DHT22;51386;53.082;8.816;2022-12-08T10:08:02;6.50;77.80
64888;DHT22;51386;53.082;8.816;2022-12-08T10:10:38;6.50;77.80
64888;DHT22;51386;53.082;8.816;2022-12-08T10:13:15;6.50;78.00
64888;DHT22;51386;53.082;8.816;2022-12-08T10:15:57;6.50;77.50
64888;DHT22;51386;53.082;8.816;2022-12-08T10:18:37;6.60;77.40
64888;DHT22;51386;53.082;8.816;2022-12-08T10:21:14;6.50;77.40
64888;DHT22;51386;53.082;8.816;2022-12-08T10:23:44;6.50;77.60
64888;DHT22;51386;53.082;8.816;2022-12-08T10:26:19;6.60;77.80
64888;DHT22;51386;53.082;8.816;2022-12-08T10:28:48;6.60;77.90
64888;DHT22;51386;53.082;8.816;2022-12-08T10:31:18;6.70;78.10
64888;DHT22;51386;53.082;8.816;2022-12-08T10:33:51;6.70;77.80
64888;DHT22;51386;53.082;8.816;2022-12-08T10:36:24;6.70;77.50
64888;DHT22;51386;53.082;8.816;2022-12-08T10:39:29;6.70;77.40
64888;DHT22;51386;53.082;8.816;2022-12-08T10:42:07;6.70;77.60
64888;DHT22;51386;53.082;8.816;2022-12-08T10:44:57;6.80;77.50
64888;DHT22;51386;53.082;8.816;2022-12-08T10:47:27;6.90;77.00
64888;DHT22;51386;53.082;8.816;2022-12-08T10:50:16;6.90;76.80
64888;DHT22;51386;53.082;8.816;2022-12-08T10:52:53;6.90;76.80
64888;DHT22;51386;53.082;8.816;2022-12-08T10:55:22;7.00;76.50
64888;DHT22;51386;53.082;8.816;2022-12-08T10:57:51;7.00;76.40
64888;DHT22;51386;53.082;8.816;2022-12-08T11:00:21;7.00;76.40
64888;DHT22;51386;53.082;8.816;2022-12-08T11:02:54;7.00;76.80
64888;DHT22;51386;53.082;8.816;2022-12-08T11:05:29;7.00;77.00
64888;DHT22;51386;53.082;8.816;2022-12-08T11:07:59;7.10;77.20
64888;DHT22;51386;53.082;8.816;2022-12-08T11:10:33;7.20;77.10
64888;DHT22;51386;53.082;8.816;2022-12-08T11:13:05;7.20;76.90
64888;DHT22;51386;53.082;8.816;2022-12-08T11:15:39;7.30;76.90
64888;DHT22;51386;53.082;8.816;2022-12-08T11:18:20;7.40;76.40
64888;DHT22;51386;53.082;8.816;2022-12-08T11:20:57;7.40;75.90
64888;DHT22;51386;53.082;8.816;2022-12-08T11:23:27;7.50;76.00
64888;DHT22;51386;53.082;8.816;2022-12-08T11:26:00;7.60;76.50
64888;DHT22;51386;53.082;8.816;2022-12-08T11:28:33;7.60;75.90
64888;DHT22;51386;53.082;8.816;2022-12-08T11:31:05;7.70;75.20
64888;DHT22;51386;53.082;8.816;2022-12-08T11:33:43;7.80;75.10
64888;DHT22;51386;53.082;8.816;2022-12-08T11:36:13;7.90;74.90
64888;DHT22;51386;53.082;8.816;2022-12-08T11:38:44;7.90;74.10
64888;DHT22;51386;53.082;8.816;2022-12-08T11:41:15;8.00;73.90
64888;DHT22;51386;53.082;8.816;2022-12-08T11:43:51;8.00;73.90
64888;DHT22;51386;53.082;8.816;2022-12-08T11:46:26;8.00;73.70
64888;DHT22;51386;53.082;8.816;2022-12-08T11:49:01;7.90;73.30
64888;DHT22;51386;53.082;8.816;2022-12-08T11:51:36;7.90;73.10
64888;DHT22;51386;53.082;8.816;2022-12-08T11:54:12;7.80;73.10
64888;DHT22;51386;53.082;8.816;2022-12-08T11:56:47;7.80;73.20
64888;DHT22;51386;53.082;8.816;2022-12-08T11:59:23;7.70;73.20
64888;DHT22;51386;53.082;8.816;2022-12-08T12:01:55;7.70;73.40
64888;DHT22;51386;53.082;8.816;2022-12-08T12:04:27;7.60;73.80
64888;DHT22;51386;53.082;8.816;2022-12-08T12:07:20;7.50;74.00
64888;DHT22;51386;53.082;8.816;2022-12-08T12:10:20;7.50;74.20
64888;DHT22;51386;53.082;8.816;2022-12-08T12:13:12;7.50;74.60
64888;DHT22;51386;53.082;8.816;2022-12-08T12:19:12;7.50;74.70
64888;DHT22;51386;53.082;8.816;2022-12-08T12:21:44;7.50;75.00
64888;DHT22;51386;53.082;8.816;2022-12-08T12:24:18;7.50;75.00
64888;DHT22;51386;53.082;8.816;2022-12-08T12:26:57;7.50;74.10
64888;DHT22;51386;53.082;8.816;2022-12-08T12:29:28;7.50;73.60
64888;DHT22;51386;53.082;8.816;2022-12-08T12:32:03;7.50;73.50
64888;DHT22;51386;53.082;8.816;2022-12-08T12:34:34;7.50;73.30
64888;DHT22;51386;53.082;8.816;2022-12-08T12:37:06;7.50;73.50
64888;DHT22;51386;53.082;8.816;2022-12-08T12:39:46;7.40;73.70
64888;DHT22;51386;53.082;8.816;2022-12-08T12:42:35;7.40;73.70
64888;DHT22;51386;53.082;8.816;2022-12-08T12:45:23;7.40;73.50
64888;DHT22;51386;53.082;8.816;2022-12-08T12:48:22;7.30;73.40
64888;DHT22;51386;53.082;8.816;2022-12-08T12:50:50;7.30;73.60
64888;DHT22;51386;53.082;8.816;2022-12-08T12:53:46;7.20;73.50
64888;DHT22;51386;53.082;8.816;2022-12-08T12:56:50;7.30;73.80
64888;DHT22;51386;53.082;8.816;2022-12-08T12:59:42;7.20;74.00
64888;DHT22;51386;53.082;8.816;2022-12-08T13:02:22;7.30;74.00
64888;DHT22;51386;53.082;8.816;2022-12-08T13:05:00;7.30;74.00
64888;DHT22;51386;53.082;8.816;2022-12-08T13:07:31;7.30;73.60
64888;DHT22;51386;53.082;8.816;2022-12-08T13:10:06;7.30;73.30
64888;DHT22;51386;53.082;8.816;2022-12-08T13:12:44;7.40;73.50
64888;DHT22;51386;53.082;8.816;2022-12-08T13:15:33;7.30;72.80
64888;DHT22;51386;53.082;8.816;2022-12-08T13:18:04;7.30;72.40
64888;DHT22;51386;53.082;8.816;2022-12-08T13:20:40;7.30;72.20
64888;DHT22;51386;53.082;8.816;2022-12-08T13:23:42;7.30;72.20
64888;DHT22;51386;53.082;8.816;2022-12-08T13:26:14;7.30;72.30
64888;DHT22;51386;53.082;8.816;2022-12-08T13:29:04;7.20;72.20
64888;DHT22;51386;53.082;8.816;2022-12-08T13:31:43;7.20;72.50
64888;DHT22;51386;53.082;8.816;2022-12-08T13:34:20;7.20;73.10
64888;DHT22;51386;53.082;8.816;2022-12-08T13:37:01;7.20;73.10
64888;DHT22;51386;53.082;8.816;2022-12-08T13:39:42;7.30;73.20
64888;DHT22;51386;53.082;8.816;2022-12-08T13:42:20;7.30;73.30
64888;DHT22;51386;53.082;8.816;2022-12-08T13:44:56;7.30;73.40
64888;DHT22;51386;53.082;8.816;2022-12-08T13:47:52;7.40;73.10
64888;DHT22;51386;53.082;8.816;2022-12-08T13:50:49;7.40;73.80
64888;DHT22;51386;53.082;8.816;2022-12-08T13:53:44;7.50;73.60
64888;DHT22;51386;53.082;8.816;2022-12-08T13:56:40;7.50;73.80
64888;DHT22;51386;53.082;8.816;2022-12-08T13:59:31;7.60;73.00
64888;DHT22;51386;53.082;8.816;2022-12-08T14:02:03;7.60;73.10
64888;DHT22;51386;53.082;8.816;2022-12-08T14:04:37;7.60;73.20
64888;DHT22;51386;53.082;8.816;2022-12-08T14:07:30;7.60;73.60
64888;DHT22;51386;53.082;8.816;2022-12-08T14:10:02;7.70;73.50
64888;DHT22;51386;53.082;8.816;2022-12-08T14:12:32;7.80;72.70
64888;DHT22;51386;53.082;8.816;2022-12-08T14:15:02;7.80;72.40
64888;DHT22;51386;53.082;8.816;2022-12-08T14:17:32;7.90;72.30
64888;DHT22;51386;53.082;8.816;2022-12-08T14:20:01;7.90;72.00
64888;DHT22;51386;53.082;8.816;2022-12-08T14:22:34;7.90;72.00
64888;DHT22;51386;53.082;8.816;2022-12-08T14:25:05;7.90;72.70
64888;DHT22;51386;53.082;8.816;2022-12-08T14:27:37;7.90;72.30
64888;DHT22;51386;53.082;8.816;2022-12-08T14:30:06;8.00;72.00
64888;DHT22;51386;53.082;8.816;2022-12-08T14:32:43;8.00;71.80
64888;DHT22;51386;53.082;8.816;2022-12-08T14:35:19;7.90;71.60
64888;DHT22;51386;53.082;8.816;2022-12-08T14:37:52;7.90;72.00
64888;DHT22;51386;53.082;8.816;2022-12-08T14:40:24;7.90;71.90
64888;DHT22;51386;53.082;8.816;2022-12-08T14:43:09;7.80;72.20
64888;DHT22;51386;53.082;8.816;2022-12-08T14:45:59;7.80;71.70
64888;DHT22;51386;53.082;8.816;2022-12-08T14:48:39;7.80;71.50
64888;DHT22;51386;53.082;8.816;2022-12-08T14:51:18;7.80;72.30
64888;DHT22;51386;53.082;8.816;2022-12-08T14:53:54;7.80;72.40
64888;DHT22;51386;53.082;8.816;2022-12-08T14:56:31;7.80;72.60
64888;DHT22;51386;53.082;8.816;2022-12-08T14:59:06;7.70;72.30
64888;DHT22;51386;53.082;8.816;2022-12-08T15:01:39;7.70;72.10
64888;DHT22;51386;53.082;8.816;2022-12-08T15:08:13;7.60;72.30
64888;DHT22;51386;53.082;8.816;2022-12-08T15:10:40;7.50;72.60
64888;DHT22;51386;53.082;8.816;2022-12-08T15:13:21;7.40;73.00
64888;DHT22;51386;53.082;8.816;2022-12-08T15:15:51;7.30;73.70
64888;DHT22;51386;53.082;8.816;2022-12-08T15:18:27;7.20;73.60
64888;DHT22;51386;53.082;8.816;2022-12-08T15:21:01;7.20;74.00
64888;DHT22;51386;53.082;8.816;2022-12-08T15:23:32;7.10;74.00
64888;DHT22;51386;53.082;8.816;2022-12-08T15:26:09;7.10;74.30
64888;DHT22;51386;53.082;8.816;2022-12-08T15:28:47;7.00;75.70
64888;DHT22;51386;53.082;8.816;2022-12-08T15:31:14;7.00;76.20
64888;DHT22;51386;53.082;8.816;2022-12-08T15:33:43;7.10;76.30
64888;DHT22;51386;53.082;8.816;2022-12-08T15:36:11;7.10;75.70
64888;DHT22;51386;53.082;8.816;2022-12-08T15:38:38;7.20;75.60
64888;DHT22;51386;53.082;8.816;2022-12-08T15:41:05;7.20;75.50
64888;DHT22;51386;53.082;8.816;2022-12-08T15:43:40;7.20;75.90
64888;DHT22;51386;53.082;8.816;2022-12-08T15:46:10;7.20;75.80
64888;DHT22;51386;53.082;8.816;2022-12-08T15:48:37;7.20;75.40
64888;DHT22;51386;53.082;8.816;2022-12-08T15:51:05;7.20;75.10
64888;DHT22;51386;53.082;8.816;2022-12-08T15:53:33;7.10;74.60
64888;DHT22;51386;53.082;8.816;2022-12-08T15:56:04;7.10;75.30
64888;DHT22;51386;53.082;8.816;2022-12-08T15:58:53;7.10;75.70
64888;DHT22;51386;53.082;8.816;2022-12-08T16:01:24;7.00;75.80
64888;DHT22;51386;53.082;8.816;2022-12-08T16:03:52;7.10;76.20
64888;DHT22;51386;53.082;8.816;2022-12-08T16:06:40;7.10;76.00
64888;DHT22;51386;53.082;8.816;2022-12-08T16:09:32;7.00;76.40
64888;DHT22;51386;53.082;8.816;2022-12-08T16:12:05;7.00;76.00
64888;DHT22;51386;53.082;8.816;2022-12-08T16:14:51;7.00;75.40
64888;DHT22;51386;53.082;8.816;2022-12-08T16:17:40;6.90;75.30
64888;DHT22;51386;53.082;8.816;2022-12-08T16:20:11;6.90;75.30
64888;DHT22;51386;53.082;8.816;2022-12-08T16:22:40;6.80;75.50
64888;DHT22;51386;53.082;8.816;2022-12-08T16:25:22;6.70;75.60
64888;DHT22;51386;53.082;8.816;2022-12-08T16:27:52;6.60;75.70